sensor_id;sensor_type;location;lat;lon;timestamp;temperature;humidity
20432;DHT22;10375;49.136;10.366;2022-10-04T00:00:29;5.60;99.90
20432;DHT22;10375;49.136;10.366;2022-10-04T00:05:54;5.50;99.90
20432;DHT22;10375;49.136;10.366;2022-10-04T00:11:22;5.50;99.90
20432;DHT22;10375;49.136;10.366;2022-10-04T00:13:56;5.50;99.90
20432;DHT22;10375;49.136;10.366;2022-10-04T00:16:33;5.50;99.90
20432;DHT22;10375;49.136;10.366;2022-10-04T00:22:10;5.50;99.90
20432;DHT22;10375;49.136;10.366;2022-10-04T00:27:37;5.40;99.90
20432;DHT22;10375;49.136;10.366;2022-10-04T00:30:19;5.40;99.90
20432;DHT22;10375;49.136;10.366;2022-10-04T00:33:02;5.40;99.90
20432;DHT22;10375;49.136;10.366;2022-10-04T00:38:07;5.40;99.90
20432;DHT22;10375;49.136;10.366;2022-10-04T00:41:00;5.30;99.90
20432;DHT22;10375;49.136;10.366;2022-10-04T00:43:46;5.30;99.90
20432;DHT22;10375;49.136;10.366;2022-10-04T00:46:21;5.30;99.90
20432;DHT22;10375;49.136;10.366;2022-10-04T00:48:59;5.40;99.90
20432;DHT22;10375;49.136;10.366;2022-10-04T00:51:54;5.30;99.90
20432;DHT22;10375;49.136;10.366;2022-10-04T00:54:34;5.30;99.90
20432;DHT22;10375;49.136;10.366;2022-10-04T00:59:54;5.30;99.90
20432;DHT22;10375;49.136;10.366;2022-10-04T01:02:45;5.30;99.90
20432;DHT22;10375;49.136;10.366;2022-10-04T01:05:35;5.30;99.90
20432;DHT22;10375;49.136;10.366;2022-10-04T01:08:17;5.30;99.90
20432;DHT22;10375;49.136;10.366;2022-10-04T01:10:55;5.20;99.90
20432;DHT22;10375;49.136;10.366;2022-10-04T01:13:38;5.20;99.90
20432;DHT22;10375;49.136;10.366;2022-10-04T01:16:25;5.20;99.90
20432;DHT22;10375;49.136;10.366;2022-10-04T01:18:52;5.10;99.90
20432;DHT22;10375;49.136;10.366;2022-10-04T01:29:13;5.10;99.90
20432;DHT22;10375;49.136;10.366;2022-10-04T01:31:45;5.20;99.90
20432;DHT22;10375;49.136;10.366;2022-10-04T01:34:15;5.20;99.90
20432;DHT22;10375;49.136;10.366;2022-10-04T01:36:43;5.10;99.90
20432;DHT22;10375;49.136;10.366;2022-10-04T01:39:13;5.10;99.90
20432;DHT22;10375;49.136;10.366;2022-10-04T01:44:27;5.00;99.90
20432;DHT22;10375;49.136;10.366;2022-10-04T01:46:59;4.90;99.90
20432;DHT22;10375;49.136;10.366;2022-10-04T01:49:30;4.80;99.90
20432;DHT22;10375;49.136;10.366;2022-10-04T01:52:16;4.70;99.90
20432;DHT22;10375;49.136;10.366;2022-10-04T01:54:52;4.70;99.90
20432;DHT22;10375;49.136;10.366;2022-10-04T01:57:35;4.70;99.90
20432;DHT22;10375;49.136;10.366;2022-10-04T02:00:11;4.70;99.90
20432;DHT22;10375;49.136;10.366;2022-10-04T02:02:49;4.80;99.90
20432;DHT22;10375;49.136;10.366;2022-10-04T02:05:46;4.80;99.90
20432;DHT22;10375;49.136;10.366;2022-10-04T02:08:17;4.80;99.90
20432;DHT22;10375;49.136;10.366;2022-10-04T02:10:49;4.70;99.90
20432;DHT22;10375;49.136;10.366;2022-10-04T02:13:17;4.60;99.90
20432;DHT22;10375;49.136;10.366;2022-10-04T02:15:45;4.60;99.90
20432;DHT22;10375;49.136;10.366;2022-10-04T02:18:15;4.60;99.90
20432;DHT22;10375;49.136;10.366;2022-10-04T02:20:44;4.60;99.90
20432;DHT22;10375;49.136;10.366;2022-10-04T02:23:12;4.70;99.90
20432;DHT22;10375;49.136;10.366;2022-10-04T02:25:41;4.70;99.90
20432;DHT22;10375;49.136;10.366;2022-10-04T02:28:12;4.80;99.90
20432;DHT22;10375;49.136;10.366;2022-10-04T02:30:50;4.70;99.90
20432;DHT22;10375;49.136;10.366;2022-10-04T02:33:45;4.70;99.90
20432;DHT22;10375;49.136;10.366;2022-10-04T02:36:13;4.60;99.90
20432;DHT22;10375;49.136;10.366;2022-10-04T02:38:57;4.70;99.90
20432;DHT22;10375;49.136;10.366;2022-10-04T02:41:30;4.70;99.90
20432;DHT22;10375;49.136;10.366;2022-10-04T02:44:17;4.80;99.90
20432;DHT22;10375;49.136;10.366;2022-10-04T02:49:32;4.70;99.90
20432;DHT22;10375;49.136;10.366;2022-10-04T02:52:04;4.70;99.90
20432;DHT22;10375;49.136;10.366;2022-10-04T02:54:50;4.60;99.90
20432;DHT22;10375;49.136;10.366;2022-10-04T02:57:22;4.70;99.90
20432;DHT22;10375;49.136;10.366;2022-10-04T02:59:51;4.70;99.90
20432;DHT22;10375;49.136;10.366;2022-10-04T03:02:29;4.80;99.90
20432;DHT22;10375;49.136;10.366;2022-10-04T03:05:04;4.80;99.90
20432;DHT22;10375;49.136;10.366;2022-10-04T03:07:34;4.80;99.90
20432;DHT22;10375;49.136;10.366;2022-10-04T03:10:05;4.80;99.90
20432;DHT22;10375;49.136;10.366;2022-10-04T03:12:33;4.80;99.90
20432;DHT22;10375;49.136;10.366;2022-10-04T03:15:00;4.70;99.90
20432;DHT22;10375;49.136;10.366;2022-10-04T03:17:27;4.70;99.90
20432;DHT22;10375;49.136;10.366;2022-10-04T03:19:55;4.70;99.90
20432;DHT22;10375;49.136;10.366;2022-10-04T03:22:23;4.50;99.90
20432;DHT22;10375;49.136;10.366;2022-10-04T03:24:52;4.40;99.90
20432;DHT22;10375;49.136;10.366;2022-10-04T03:27:27;4.30;99.90
20432;DHT22;10375;49.136;10.366;2022-10-04T03:29:55;4.20;99.90
20432;DHT22;10375;49.136;10.366;2022-10-04T03:32:25;4.20;99.90
20432;DHT22;10375;49.136;10.366;2022-10-04T03:34:58;4.20;99.90
20432;DHT22;10375;49.136;10.366;2022-10-04T03:37:28;4.30;99.90
20432;DHT22;10375;49.136;10.366;2022-10-04T03:39:56;4.30;99.90
20432;DHT22;10375;49.136;10.366;2022-10-04T03:42:29;4.40;99.90
20432;DHT22;10375;49.136;10.366;2022-10-04T03:45:00;4.40;99.90
20432;DHT22;10375;49.136;10.366;2022-10-04T03:47:37;4.40;99.90
20432;DHT22;10375;49.136;10.366;2022-10-04T03:50:21;4.40;99.90
20432;DHT22;10375;49.136;10.366;2022-10-04T03:52:56;4.40;99.90
20432;DHT22;10375;49.136;10.366;2022-10-04T03:55:33;4.40;99.90
20432;DHT22;10375;49.136;10.366;2022-10-04T03:58:02;4.30;99.90
20432;DHT22;10375;49.136;10.366;2022-10-04T04:00:29;4.20;99.90
20432;DHT22;10375;49.136;10.366;2022-10-04T04:03:03;4.20;99.90
20432;DHT22;10375;49.136;10.366;2022-10-04T04:05:39;4.20;99.90
20432;DHT22;10375;49.136;10.366;2022-10-04T04:08:32;4.10;99.90
20432;DHT22;10375;49.136;10.366;2022-10-04T04:11:02;4.10;99.90
20432;DHT22;10375;49.136;10.366;2022-10-04T04:13:46;4.20;99.90
20432;DHT22;10375;49.136;10.366;2022-10-04T04:16:19;4.20;99.90
20432;DHT22;10375;49.136;10.366;2022-10-04T04:18:48;4.20;99.90
20432;DHT22;10375;49.136;10.366;2022-10-04T04:21:17;4.20;99.90
20432;DHT22;10375;49.136;10.366;2022-10-04T04:23:52;4.10;99.90
20432;DHT22;10375;49.136;10.366;2022-10-04T04:29:05;4.20;99.90
20432;DHT22;10375;49.136;10.366;2022-10-04T04:31:55;4.20;99.90
20432;DHT22;10375;49.136;10.366;2022-10-04T04:34:30;4.20;99.90
20432;DHT22;10375;49.136;10.366;2022-10-04T04:36:59;4.20;99.90
20432;DHT22;10375;49.136;10.366;2022-10-04T04:39:28;4.20;99.90
20432;DHT22;10375;49.136;10.366;2022-10-04T04:44:39;4.20;99.90
20432;DHT22;10375;49.136;10.366;2022-10-04T04:49:48;4.20;99.90
20432;DHT22;10375;49.136;10.366;2022-10-04T04:52:17;4.20;99.90
20432;DHT22;10375;49.136;10.366;2022-10-04T04:54:47;4.20;99.90
20432;DHT22;10375;49.136;10.366;2022-10-04T04:57:16;4.30;99.90
20432;DHT22;10375;49.136;10.366;2022-10-04T04:59:45;4.30;99.90
20432;DHT22;10375;49.136;10.366;2022-10-04T05:02:35;4.30;99.90
20432;DHT22;10375;49.136;10.366;2022-10-04T05:05:21;4.20;99.90
20432;DHT22;10375;49.136;10.366;2022-10-04T05:08:02;4.30;99.90
20432;DHT22;10375;49.136;10.366;2022-10-04T05:10:32;4.30;99.90
20432;DHT22;10375;49.136;10.366;2022-10-04T05:13:01;4.30;99.90
20432;DHT22;10375;49.136;10.366;2022-10-04T05:15:32;4.20;99.90
20432;DHT22;10375;49.136;10.366;2022-10-04T05:18:30;4.30;99.90
20432;DHT22;10375;49.136;10.366;2022-10-04T05:21:12;4.40;99.90
20432;DHT22;10375;49.136;10.366;2022-10-04T05:23:40;4.30;99.90
20432;DHT22;10375;49.136;10.366;2022-10-04T05:26:12;4.30;99.90
20432;DHT22;10375;49.136;10.366;2022-10-04T05:28:40;4.30;99.90
20432;DHT22;10375;49.136;10.366;2022-10-04T05:31:37;4.30;99.90
20432;DHT22;10375;49.136;10.366;2022-10-04T05:34:21;4.30;99.90
20432;DHT22;10375;49.136;10.366;2022-10-04T05:39:39;4.20;99.90
20432;DHT22;10375;49.136;10.366;2022-10-04T05:42:27;4.40;99.90
20432;DHT22;10375;49.136;10.366;2022-10-04T05:45:00;4.40;99.90
20432;DHT22;10375;49.136;10.366;2022-10-04T05:47:29;4.40;99.90
20432;DHT22;10375;49.136;10.366;2022-10-04T05:49:57;4.60;99.90
20432;DHT22;10375;49.136;10.366;2022-10-04T05:52:39;4.70;99.90
20432;DHT22;10375;49.136;10.366;2022-10-04T05:55:16;4.80;99.90
20432;DHT22;10375;49.136;10.366;2022-10-04T06:06:56;5.10;99.90
20432;DHT22;10375;49.136;10.366;2022-10-04T06:12:34;5.20;99.90
20432;DHT22;10375;49.136;10.366;2022-10-04T06:15:24;5.20;99.90
20432;DHT22;10375;49.136;10.366;2022-10-04T06:20:48;5.20;99.90
20432;DHT22;10375;49.136;10.366;2022-10-04T06:23:21;5.20;99.90
20432;DHT22;10375;49.136;10.366;2022-10-04T06:26:08;5.40;99.90
20432;DHT22;10375;49.136;10.366;2022-10-04T06:28:44;5.40;99.90
20432;DHT22;10375;49.136;10.366;2022-10-04T06:34:35;5.50;99.90
20432;DHT22;10375;49.136;10.366;2022-10-04T06:53:51;6.00;99.90
20432;DHT22;10375;49.136;10.366;2022-10-04T07:02:18;6.40;99.90
20432;DHT22;10375;49.136;10.366;2022-10-04T07:04:57;6.60;99.90
20432;DHT22;10375;49.136;10.366;2022-10-04T07:07:42;6.60;99.90
20432;DHT22;10375;49.136;10.366;2022-10-04T07:18:19;7.00;99.90
20432;DHT22;10375;49.136;10.366;2022-10-04T07:20:57;7.10;99.90
20432;DHT22;10375;49.136;10.366;2022-10-04T07:23:31;7.20;99.90
20432;DHT22;10375;49.136;10.366;2022-10-04T07:26:19;7.30;99.90
20432;DHT22;10375;49.136;10.366;2022-10-04T07:28:49;7.40;99.90
20432;DHT22;10375;49.136;10.366;2022-10-04T07:31:35;7.50;99.90
20432;DHT22;10375;49.136;10.366;2022-10-04T07:34:10;7.60;99.90
20432;DHT22;10375;49.136;10.366;2022-10-04T07:36:44;7.70;99.90
20432;DHT22;10375;49.136;10.366;2022-10-04T07:39:32;7.70;99.90
20432;DHT22;10375;49.136;10.366;2022-10-04T07:42:30;7.80;99.90
20432;DHT22;10375;49.136;10.366;2022-10-04T07:47:38;8.00;99.90
20432;DHT22;10375;49.136;10.366;2022-10-04T07:50:25;8.20;99.90
20432;DHT22;10375;49.136;10.366;2022-10-04T07:56:12;8.40;99.90
20432;DHT22;10375;49.136;10.366;2022-10-04T07:58:53;8.60;99.90
20432;DHT22;10375;49.136;10.366;2022-10-04T08:01:51;8.80;99.90
20432;DHT22;10375;49.136;10.366;2022-10-04T08:04:49;9.00;99.90
20432;DHT22;10375;49.136;10.366;2022-10-04T08:28:28;10.70;99.90
20432;DHT22;10375;49.136;10.366;2022-10-04T08:37:07;11.00;99.90
20432;DHT22;10375;49.136;10.366;2022-10-04T08:42:30;11.30;99.90
20432;DHT22;10375;49.136;10.366;2022-10-04T09:10:49;12.60;99.90
20432;DHT22;10375;49.136;10.366;2022-10-04T09:16:40;13.10;99.90
20432;DHT22;10375;49.136;10.366;2022-10-04T09:37:07;13.80;99.90
20432;DHT22;10375;49.136;10.366;2022-10-04T09:45:29;14.40;99.90
20432;DHT22;10375;49.136;10.366;2022-10-04T09:48:12;14.60;99.90
20432;DHT22;10375;49.136;10.366;2022-10-04T09:51:12;14.70;99.90
20432;DHT22;10375;49.136;10.366;2022-10-04T09:56:36;15.00;99.90
20432;DHT22;10375;49.136;10.366;2022-10-04T10:05:20;15.70;99.90
20432;DHT22;10375;49.136;10.366;2022-10-04T10:11:06;16.30;99.90
20432;DHT22;10375;49.136;10.366;2022-10-04T10:14:28;16.70;99.90
20432;DHT22;10375;49.136;10.366;2022-10-04T10:17:11;16.80;99.90
20432;DHT22;10375;49.136;10.366;2022-10-04T10:34:11;16.20;99.90
20432;DHT22;10375;49.136;10.366;2022-10-04T10:45:47;16.50;99.90
20432;DHT22;10375;49.136;10.366;2022-10-04T11:06:10;17.60;99.90
20432;DHT22;10375;49.136;10.366;2022-10-04T11:12:17;17.80;99.90
20432;DHT22;10375;49.136;10.366;2022-10-04T11:26:18;17.70;99.90
20432;DHT22;10375;49.136;10.366;2022-10-04T11:40:58;17.80;99.90
20432;DHT22;10375;49.136;10.366;2022-10-04T11:43:59;18.20;99.90
20432;DHT22;10375;49.136;10.366;2022-10-04T11:46:54;18.20;99.90
20432;DHT22;10375;49.136;10.366;2022-10-04T11:58:19;18.00;99.90
20432;DHT22;10375;49.136;10.366;2022-10-04T12:09:22;17.50;99.90
20432;DHT22;10375;49.136;10.366;2022-10-04T12:12:09;17.70;99.90
20432;DHT22;10375;49.136;10.366;2022-10-04T12:29:07;17.70;99.90
20432;DHT22;10375;49.136;10.366;2022-10-04T12:31:50;17.90;99.90
20432;DHT22;10375;49.136;10.366;2022-10-04T12:43:20;18.00;99.90
20432;DHT22;10375;49.136;10.366;2022-10-04T12:51:18;18.10;99.90
20432;DHT22;10375;49.136;10.366;2022-10-04T13:04:41;18.70;99.90
20432;DHT22;10375;49.136;10.366;2022-10-04T13:15:42;18.60;99.90
20432;DHT22;10375;49.136;10.366;2022-10-04T13:27:47;18.30;99.90
20432;DHT22;10375;49.136;10.366;2022-10-04T13:30:31;18.10;99.90
20432;DHT22;10375;49.136;10.366;2022-10-04T13:36:18;18.40;99.90
20432;DHT22;10375;49.136;10.366;2022-10-04T13:41:56;18.60;99.90
20432;DHT22;10375;49.136;10.366;2022-10-04T13:44:46;18.70;99.90
20432;DHT22;10375;49.136;10.366;2022-10-04T13:56:11;19.10;99.90
20432;DHT22;10375;49.136;10.366;2022-10-04T14:10:43;18.50;99.90
20432;DHT22;10375;49.136;10.366;2022-10-04T14:25:08;18.10;99.90
20432;DHT22;10375;49.136;10.366;2022-10-04T14:27:55;18.00;99.90
20432;DHT22;10375;49.136;10.366;2022-10-04T14:33:36;17.90;99.90
20432;DHT22;10375;49.136;10.366;2022-10-04T14:53:36;17.60;99.90
20432;DHT22;10375;49.136;10.366;2022-10-04T15:02:12;17.30;99.90
20432;DHT22;10375;49.136;10.366;2022-10-04T15:07:44;17.30;99.90
20432;DHT22;10375;49.136;10.366;2022-10-04T15:10:18;17.20;99.90
20432;DHT22;10375;49.136;10.366;2022-10-04T15:13:24;17.20;99.90
20432;DHT22;10375;49.136;10.366;2022-10-04T15:16:05;17.10;99.90
20432;DHT22;10375;49.136;10.366;2022-10-04T15:24:42;16.90;99.90
20432;DHT22;10375;49.136;10.366;2022-10-04T15:27:37;16.80;99.90
20432;DHT22;10375;49.136;10.366;2022-10-04T15:30:15;16.70;99.90
20432;DHT22;10375;49.136;10.366;2022-10-04T15:38:21;16.40;99.90
20432;DHT22;10375;49.136;10.366;2022-10-04T15:55:19;15.90;99.90
20432;DHT22;10375;49.136;10.366;2022-10-04T16:00:25;15.70;99.90
20432;DHT22;10375;49.136;10.366;2022-10-04T16:06:03;15.50;99.90
20432;DHT22;10375;49.136;10.366;2022-10-04T16:09:36;15.40;99.90
20432;DHT22;10375;49.136;10.366;2022-10-04T16:17:35;15.10;99.90
20432;DHT22;10375;49.136;10.366;2022-10-04T16:20:38;15.00;99.90
20432;DHT22;10375;49.136;10.366;2022-10-04T16:25:56;14.80;99.90
20432;DHT22;10375;49.136;10.366;2022-10-04T16:29:03;14.70;99.90
20432;DHT22;10375;49.136;10.366;2022-10-04T16:34:49;14.40;99.90
20432;DHT22;10375;49.136;10.366;2022-10-04T16:37:40;14.30;99.90
20432;DHT22;10375;49.136;10.366;2022-10-04T16:43:46;14.00;99.90
20432;DHT22;10375;49.136;10.366;2022-10-04T16:48:52;13.60;99.90
20432;DHT22;10375;49.136;10.366;2022-10-04T16:54:47;13.30;99.90
20432;DHT22;10375;49.136;10.366;2022-10-04T17:13:52;12.30;99.90
20432;DHT22;10375;49.136;10.366;2022-10-04T17:16:27;12.10;99.90
20432;DHT22;10375;49.136;10.366;2022-10-04T17:19:15;12.00;99.90
20432;DHT22;10375;49.136;10.366;2022-10-04T17:21:53;11.90;99.90
20432;DHT22;10375;49.136;10.366;2022-10-04T17:25:27;11.90;99.90
20432;DHT22;10375;49.136;10.366;2022-10-04T17:27:56;11.70;99.90
20432;DHT22;10375;49.136;10.366;2022-10-04T17:30:28;11.60;99.90
20432;DHT22;10375;49.136;10.366;2022-10-04T17:33:16;11.50;99.90
20432;DHT22;10375;49.136;10.366;2022-10-04T17:36:40;11.40;99.90
20432;DHT22;10375;49.136;10.366;2022-10-04T17:39:26;11.30;99.90
20432;DHT22;10375;49.136;10.366;2022-10-04T17:45:11;11.30;99.90
20432;DHT22;10375;49.136;10.366;2022-10-04T17:51:10;11.20;99.90
20432;DHT22;10375;49.136;10.366;2022-10-04T17:54:12;11.10;99.90
20432;DHT22;10375;49.136;10.366;2022-10-04T17:59:54;10.90;99.90
20432;DHT22;10375;49.136;10.366;2022-10-04T18:05:20;10.80;99.90
20432;DHT22;10375;49.136;10.366;2022-10-04T18:07:58;10.70;99.90
20432;DHT22;10375;49.136;10.366;2022-10-04T18:13:33;10.60;99.90
20432;DHT22;10375;49.136;10.366;2022-10-04T18:16:25;10.50;99.90
20432;DHT22;10375;49.136;10.366;2022-10-04T18:18:54;10.50;99.90
20432;DHT22;10375;49.136;10.366;2022-10-04T18:21:26;10.40;99.90
20432;DHT22;10375;49.136;10.366;2022-10-04T18:24:16;10.40;99.90
20432;DHT22;10375;49.136;10.366;2022-10-04T18:26:58;10.40;99.90
20432;DHT22;10375;49.136;10.366;2022-10-04T18:29:42;10.30;99.90
20432;DHT22;10375;49.136;10.366;2022-10-04T18:32:36;10.20;99.90
20432;DHT22;10375;49.136;10.366;2022-10-04T18:35:29;10.20;99.90
20432;DHT22;10375;49.136;10.366;2022-10-04T18:38:21;10.10;99.90
20432;DHT22;10375;49.136;10.366;2022-10-04T18:41:17;10.10;99.90
20432;DHT22;10375;49.136;10.366;2022-10-04T18:46:23;10.00;99.90
20432;DHT22;10375;49.136;10.366;2022-10-04T18:51:28;9.90;99.90
20432;DHT22;10375;49.136;10.366;2022-10-04T18:54:33;9.90;99.90
20432;DHT22;10375;49.136;10.366;2022-10-04T19:00:07;9.80;99.90
20432;DHT22;10375;49.136;10.366;2022-10-04T19:08:27;9.70;99.90
20432;DHT22;10375;49.136;10.366;2022-10-04T19:14:03;9.60;99.90
20432;DHT22;10375;49.136;10.366;2022-10-04T19:17:02;9.60;99.90
20432;DHT22;10375;49.136;10.366;2022-10-04T19:22:39;9.50;99.90
20432;DHT22;10375;49.136;10.366;2022-10-04T19:28:26;9.40;99.90
20432;DHT22;10375;49.136;10.366;2022-10-04T19:31:20;9.40;99.90
20432;DHT22;10375;49.136;10.366;2022-10-04T19:33:50;9.30;99.90
20432;DHT22;10375;49.136;10.366;2022-10-04T19:42:20;9.30;99.90
20432;DHT22;10375;49.136;10.366;2022-10-04T19:47:56;9.20;99.90
20432;DHT22;10375;49.136;10.366;2022-10-04T19:50:34;9.10;99.90
20432;DHT22;10375;49.136;10.366;2022-10-04T19:53:13;9.20;99.90
20432;DHT22;10375;49.136;10.366;2022-10-04T19:55:57;9.10;99.90
20432;DHT22;10375;49.136;10.366;2022-10-04T19:58:40;9.10;99.90
20432;DHT22;10375;49.136;10.366;2022-10-04T20:01:20;9.10;99.90
20432;DHT22;10375;49.136;10.366;2022-10-04T20:03:51;9.10;99.90
20432;DHT22;10375;49.136;10.366;2022-10-04T20:06:46;9.00;99.90
20432;DHT22;10375;49.136;10.366;2022-10-04T20:09:50;9.00;99.90
20432;DHT22;10375;49.136;10.366;2022-10-04T20:17:44;8.90;99.90
20432;DHT22;10375;49.136;10.366;2022-10-04T20:23:06;8.90;99.90
20432;DHT22;10375;49.136;10.366;2022-10-04T20:28:35;8.90;99.90
20432;DHT22;10375;49.136;10.366;2022-10-04T20:31:08;8.90;99.90
20432;DHT22;10375;49.136;10.366;2022-10-04T20:33:42;8.90;99.90
20432;DHT22;10375;49.136;10.366;2022-10-04T20:45:21;8.70;99.90
20432;DHT22;10375;49.136;10.366;2022-10-04T20:47:51;8.70;99.90
20432;DHT22;10375;49.136;10.366;2022-10-04T20:50:38;8.60;99.90
20432;DHT22;10375;49.136;10.366;2022-10-04T20:55:50;8.70;99.90
20432;DHT22;10375;49.136;10.366;2022-10-04T21:00:51;8.50;99.90
20432;DHT22;10375;49.136;10.366;2022-10-04T21:03:19;8.40;99.90
20432;DHT22;10375;49.136;10.366;2022-10-04T21:06:08;8.40;99.90
20432;DHT22;10375;49.136;10.366;2022-10-04T21:08:36;8.40;99.90
20432;DHT22;10375;49.136;10.366;2022-10-04T21:11:14;8.30;99.90
20432;DHT22;10375;49.136;10.366;2022-10-04T21:19:58;8.30;99.90
20432;DHT22;10375;49.136;10.366;2022-10-04T21:27:44;8.20;99.90
20432;DHT22;10375;49.136;10.366;2022-10-04T21:30:15;8.20;99.90
20432;DHT22;10375;49.136;10.366;2022-10-04T21:32:43;8.10;99.90
20432;DHT22;10375;49.136;10.366;2022-10-04T21:35:11;8.10;99.90
20432;DHT22;10375;49.136;10.366;2022-10-04T21:37:38;8.00;99.90
20432;DHT22;10375;49.136;10.366;2022-10-04T21:40:06;8.00;99.90
20432;DHT22;10375;49.136;10.366;2022-10-04T21:42:33;8.10;99.90
20432;DHT22;10375;49.136;10.366;2022-10-04T21:45:00;8.00;99.90
20432;DHT22;10375;49.136;10.366;2022-10-04T21:47:27;8.00;99.90
20432;DHT22;10375;49.136;10.366;2022-10-04T21:49:54;8.00;99.90
20432;DHT22;10375;49.136;10.366;2022-10-04T21:52:21;8.10;99.90
20432;DHT22;10375;49.136;10.366;2022-10-04T21:54:48;8.10;99.90
20432;DHT22;10375;49.136;10.366;2022-10-04T21:57:15;8.10;99.90
20432;DHT22;10375;49.136;10.366;2022-10-04T21:59:42;8.00;99.90
20432;DHT22;10375;49.136;10.366;2022-10-04T22:02:09;8.00;99.90
20432;DHT22;10375;49.136;10.366;2022-10-04T22:04:36;7.90;99.90
20432;DHT22;10375;49.136;10.366;2022-10-04T22:07:04;7.90;99.90
20432;DHT22;10375;49.136;10.366;2022-10-04T22:09:31;7.90;99.90
20432;DHT22;10375;49.136;10.366;2022-10-04T22:11:59;7.90;99.90
20432;DHT22;10375;49.136;10.366;2022-10-04T22:14:26;7.80;99.90
20432;DHT22;10375;49.136;10.366;2022-10-04T22:16:54;7.80;99.90
20432;DHT22;10375;49.136;10.366;2022-10-04T22:19:21;7.70;99.90
20432;DHT22;10375;49.136;10.366;2022-10-04T22:21:48;7.80;99.90
20432;DHT22;10375;49.136;10.366;2022-10-04T22:24:18;7.80;99.90
20432;DHT22;10375;49.136;10.366;2022-10-04T22:26:47;7.90;99.90
20432;DHT22;10375;49.136;10.366;2022-10-04T22:29:16;7.80;99.90
20432;DHT22;10375;49.136;10.366;2022-10-04T22:31:49;7.80;99.90
20432;DHT22;10375;49.136;10.366;2022-10-04T22:34:19;7.80;99.90
20432;DHT22;10375;49.136;10.366;2022-10-04T22:36:47;7.70;99.90
20432;DHT22;10375;49.136;10.366;2022-10-04T22:39:19;7.80;99.90
20432;DHT22;10375;49.136;10.366;2022-10-04T22:41:54;7.80;99.90
20432;DHT22;10375;49.136;10.366;2022-10-04T22:44:34;7.80;99.90
20432;DHT22;10375;49.136;10.366;2022-10-04T22:47:08;7.70;99.90
20432;DHT22;10375;49.136;10.366;2022-10-04T22:49:38;7.70;99.90
20432;DHT22;10375;49.136;10.366;2022-10-04T22:52:17;7.70;99.90
20432;DHT22;10375;49.136;10.366;2022-10-04T22:54:47;7.70;99.90
20432;DHT22;10375;49.136;10.366;2022-10-04T22:57:16;7.70;99.90
20432;DHT22;10375;49.136;10.366;2022-10-04T22:59:49;7.70;99.90
20432;DHT22;10375;49.136;10.366;2022-10-04T23:04:49;7.60;99.90
20432;DHT22;10375;49.136;10.366;2022-10-04T23:07:17;7.60;99.90
20432;DHT22;10375;49.136;10.366;2022-10-04T23:09:45;7.60;99.90
20432;DHT22;10375;49.136;10.366;2022-10-04T23:12:12;7.50;99.90
20432;DHT22;10375;49.136;10.366;2022-10-04T23:14:40;7.50;99.90
20432;DHT22;10375;49.136;10.366;2022-10-04T23:19:57;7.50;99.90
20432;DHT22;10375;49.136;10.366;2022-10-04T23:22:28;7.50;99.90
20432;DHT22;10375;49.136;10.366;2022-10-04T23:24:56;7.40;99.90
20432;DHT22;10375;49.136;10.366;2022-10-04T23:27:23;7.50;99.90
20432;DHT22;10375;49.136;10.366;2022-10-04T23:30:00;7.40;99.90
20432;DHT22;10375;49.136;10.366;2022-10-04T23:32:30;7.50;99.90
20432;DHT22;10375;49.136;10.366;2022-10-04T23:34:59;7.40;99.90
20432;DHT22;10375;49.136;10.366;2022-10-04T23:37:30;7.40;99.90
20432;DHT22;10375;49.136;10.366;2022-10-04T23:39:58;7.40;99.90
20432;DHT22;10375;49.136;10.366;2022-10-04T23:42:28;7.40;99.90
20432;DHT22;10375;49.136;10.366;2022-10-04T23:44:58;7.30;99.90
20432;DHT22;10375;49.136;10.366;2022-10-04T23:47:35;7.40;99.90
20432;DHT22;10375;49.136;10.366;2022-10-04T23:52:44;7.40;99.90
20432;DHT22;10375;49.136;10.366;2022-10-04T23:55:22;7.30;99.90
20432;DHT22;10375;49.136;10.366;2022-10-04T23:57:50;7.30;99.90
